sensor_id;sensor_type;location;lat;lon;timestamp;P1;durP1;ratioP1;P2;durP2;ratioP2
39426;SDS011;25938;48.470;1.486;2022-10-31T00:00:49;2.55;;;2.30;;
39426;SDS011;25938;48.470;1.486;2022-10-31T00:03:16;3.25;;;2.63;;
39426;SDS011;25938;48.470;1.486;2022-10-31T00:05:43;3.90;;;2.22;;
39426;SDS011;25938;48.470;1.486;2022-10-31T00:08:10;4.32;;;2.20;;
39426;SDS011;25938;48.470;1.486;2022-10-31T00:10:42;2.47;;;2.28;;
39426;SDS011;25938;48.470;1.486;2022-10-31T00:13:09;4.13;;;2.30;;
39426;SDS011;25938;48.470;1.486;2022-10-31T00:15:36;3.42;;;2.20;;
39426;SDS011;25938;48.470;1.486;2022-10-31T00:18:02;3.55;;;3.05;;
39426;SDS011;25938;48.470;1.486;2022-10-31T00:20:31;2.92;;;2.45;;
39426;SDS011;25938;48.470;1.486;2022-10-31T00:22:57;2.35;;;2.13;;
39426;SDS011;25938;48.470;1.486;2022-10-31T00:25:24;4.05;;;2.25;;
39426;SDS011;25938;48.470;1.486;2022-10-31T00:27:50;3.33;;;3.03;;
39426;SDS011;25938;48.470;1.486;2022-10-31T00:30:16;3.85;;;2.28;;
39426;SDS011;25938;48.470;1.486;2022-10-31T00:32:41;3.97;;;2.47;;
39426;SDS011;25938;48.470;1.486;2022-10-31T00:35:07;2.67;;;2.38;;
39426;SDS011;25938;48.470;1.486;2022-10-31T00:37:33;2.65;;;2.45;;
39426;SDS011;25938;48.470;1.486;2022-10-31T00:39:58;3.17;;;2.35;;
39426;SDS011;25938;48.470;1.486;2022-10-31T00:42:24;4.75;;;2.58;;
39426;SDS011;25938;48.470;1.486;2022-10-31T00:44:49;3.08;;;2.63;;
39426;SDS011;25938;48.470;1.486;2022-10-31T00:47:15;3.72;;;2.70;;
39426;SDS011;25938;48.470;1.486;2022-10-31T00:49:40;4.07;;;3.20;;
39426;SDS011;25938;48.470;1.486;2022-10-31T00:52:06;5.53;;;3.20;;
39426;SDS011;25938;48.470;1.486;2022-10-31T00:54:32;5.95;;;2.95;;
39426;SDS011;25938;48.470;1.486;2022-10-31T00:56:57;3.85;;;2.92;;
39426;SDS011;25938;48.470;1.486;2022-10-31T00:59:23;3.63;;;2.72;;
39426;SDS011;25938;48.470;1.486;2022-10-31T01:01:49;2.88;;;2.67;;
39426;SDS011;25938;48.470;1.486;2022-10-31T01:04:14;2.70;;;2.50;;
39426;SDS011;25938;48.470;1.486;2022-10-31T01:06:40;2.83;;;2.42;;
39426;SDS011;25938;48.470;1.486;2022-10-31T01:09:06;2.50;;;2.30;;
39426;SDS011;25938;48.470;1.486;2022-10-31T01:11:32;2.58;;;2.25;;
39426;SDS011;25938;48.470;1.486;2022-10-31T01:13:57;3.92;;;3.13;;
39426;SDS011;25938;48.470;1.486;2022-10-31T01:16:24;4.10;;;2.13;;
39426;SDS011;25938;48.470;1.486;2022-10-31T01:18:50;3.88;;;2.40;;
39426;SDS011;25938;48.470;1.486;2022-10-31T01:21:18;2.25;;;1.83;;
39426;SDS011;25938;48.470;1.486;2022-10-31T01:23:44;4.10;;;2.85;;
39426;SDS011;25938;48.470;1.486;2022-10-31T01:26:32;3.00;;;2.70;;
39426;SDS011;25938;48.470;1.486;2022-10-31T01:28:58;4.47;;;2.70;;
39426;SDS011;25938;48.470;1.486;2022-10-31T01:31:27;4.55;;;2.25;;
39426;SDS011;25938;48.470;1.486;2022-10-31T01:33:54;2.33;;;2.13;;
39426;SDS011;25938;48.470;1.486;2022-10-31T01:36:24;2.72;;;2.17;;
39426;SDS011;25938;48.470;1.486;2022-10-31T01:38:55;3.47;;;2.58;;
39426;SDS011;25938;48.470;1.486;2022-10-31T01:41:23;3.50;;;2.70;;
39426;SDS011;25938;48.470;1.486;2022-10-31T01:43:52;2.28;;;2.08;;
39426;SDS011;25938;48.470;1.486;2022-10-31T01:49:00;2.97;;;2.33;;
39426;SDS011;25938;48.470;1.486;2022-10-31T01:51:30;3.78;;;2.47;;
39426;SDS011;25938;48.470;1.486;2022-10-31T01:54:01;3.28;;;2.58;;
39426;SDS011;25938;48.470;1.486;2022-10-31T01:56:30;2.85;;;2.60;;
39426;SDS011;25938;48.470;1.486;2022-10-31T01:58:58;2.47;;;1.92;;
39426;SDS011;25938;48.470;1.486;2022-10-31T02:01:25;3.33;;;2.38;;
39426;SDS011;25938;48.470;1.486;2022-10-31T02:03:51;2.55;;;2.35;;
39426;SDS011;25938;48.470;1.486;2022-10-31T02:06:36;4.05;;;2.60;;
39426;SDS011;25938;48.470;1.486;2022-10-31T02:09:06;4.32;;;2.58;;
39426;SDS011;25938;48.470;1.486;2022-10-31T02:11:32;7.03;;;3.00;;
39426;SDS011;25938;48.470;1.486;2022-10-31T02:14:00;3.08;;;2.33;;
39426;SDS011;25938;48.470;1.486;2022-10-31T02:16:27;2.95;;;1.92;;
39426;SDS011;25938;48.470;1.486;2022-10-31T02:18:53;2.30;;;2.10;;
39426;SDS011;25938;48.470;1.486;2022-10-31T02:32:06;3.47;;;2.58;;
39426;SDS011;25938;48.470;1.486;2022-10-31T02:37:44;2.65;;;2.28;;
39426;SDS011;25938;48.470;1.486;2022-10-31T02:48:15;3.25;;;2.50;;
39426;SDS011;25938;48.470;1.486;2022-10-31T02:50:58;3.20;;;2.25;;
39426;SDS011;25938;48.470;1.486;2022-10-31T02:53:26;2.75;;;2.45;;
39426;SDS011;25938;48.470;1.486;2022-10-31T02:55:58;2.92;;;2.70;;
39426;SDS011;25938;48.470;1.486;2022-10-31T02:58:31;2.88;;;2.10;;
39426;SDS011;25938;48.470;1.486;2022-10-31T03:03:48;2.10;;;1.85;;
39426;SDS011;25938;48.470;1.486;2022-10-31T03:06:38;3.22;;;2.42;;
39426;SDS011;25938;48.470;1.486;2022-10-31T03:09:12;4.90;;;2.45;;
39426;SDS011;25938;48.470;1.486;2022-10-31T03:11:53;1.98;;;1.80;;
39426;SDS011;25938;48.470;1.486;2022-10-31T03:14:33;4.60;;;2.13;;
39426;SDS011;25938;48.470;1.486;2022-10-31T03:17:07;4.28;;;1.92;;
39426;SDS011;25938;48.470;1.486;2022-10-31T03:19:57;2.30;;;2.03;;
39426;SDS011;25938;48.470;1.486;2022-10-31T03:22:27;2.17;;;1.92;;
39426;SDS011;25938;48.470;1.486;2022-10-31T03:24:54;2.33;;;1.73;;
39426;SDS011;25938;48.470;1.486;2022-10-31T03:27:24;2.50;;;2.10;;
39426;SDS011;25938;48.470;1.486;2022-10-31T03:29:56;2.65;;;1.80;;
39426;SDS011;25938;48.470;1.486;2022-10-31T03:32:29;2.10;;;1.80;;
39426;SDS011;25938;48.470;1.486;2022-10-31T03:34:59;3.03;;;1.70;;
39426;SDS011;25938;48.470;1.486;2022-10-31T03:37:27;4.72;;;2.53;;
39426;SDS011;25938;48.470;1.486;2022-10-31T03:39:55;2.22;;;1.58;;
39426;SDS011;25938;48.470;1.486;2022-10-31T03:42:25;4.75;;;2.08;;
39426;SDS011;25938;48.470;1.486;2022-10-31T03:45:07;4.07;;;1.95;;
39426;SDS011;25938;48.470;1.486;2022-10-31T03:47:35;5.03;;;1.77;;
39426;SDS011;25938;48.470;1.486;2022-10-31T03:50:03;3.53;;;1.88;;
39426;SDS011;25938;48.470;1.486;2022-10-31T03:52:40;2.45;;;1.58;;
39426;SDS011;25938;48.470;1.486;2022-10-31T03:58:57;3.10;;;1.52;;
39426;SDS011;25938;48.470;1.486;2022-10-31T04:01:05;3.30;;;2.28;;
39426;SDS011;25938;48.470;1.486;2022-10-31T04:03:34;4.00;;;1.80;;
39426;SDS011;25938;48.470;1.486;2022-10-31T04:06:04;2.58;;;1.80;;
39426;SDS011;25938;48.470;1.486;2022-10-31T04:08:33;1.95;;;1.83;;
39426;SDS011;25938;48.470;1.486;2022-10-31T04:11:06;2.22;;;1.75;;
39426;SDS011;25938;48.470;1.486;2022-10-31T04:13:34;4.88;;;1.80;;
39426;SDS011;25938;48.470;1.486;2022-10-31T04:16:04;3.03;;;2.80;;
39426;SDS011;25938;48.470;1.486;2022-10-31T04:18:30;2.25;;;2.05;;
39426;SDS011;25938;48.470;1.486;2022-10-31T04:21:14;1.95;;;1.70;;
39426;SDS011;25938;48.470;1.486;2022-10-31T04:23:39;3.20;;;1.48;;
39426;SDS011;25938;48.470;1.486;2022-10-31T04:26:05;2.33;;;1.67;;
39426;SDS011;25938;48.470;1.486;2022-10-31T04:28:31;2.63;;;1.70;;
39426;SDS011;25938;48.470;1.486;2022-10-31T04:30:58;4.15;;;1.55;;
39426;SDS011;25938;48.470;1.486;2022-10-31T04:33:24;3.58;;;1.40;;
39426;SDS011;25938;48.470;1.486;2022-10-31T04:35:50;2.03;;;1.80;;
39426;SDS011;25938;48.470;1.486;2022-10-31T04:38:15;2.03;;;1.77;;
39426;SDS011;25938;48.470;1.486;2022-10-31T04:40:41;4.22;;;1.77;;
39426;SDS011;25938;48.470;1.486;2022-10-31T04:43:06;1.60;;;1.50;;
39426;SDS011;25938;48.470;1.486;2022-10-31T04:45:32;2.38;;;2.15;;
39426;SDS011;25938;48.470;1.486;2022-10-31T04:47:57;4.35;;;1.88;;
39426;SDS011;25938;48.470;1.486;2022-10-31T04:50:23;1.63;;;1.52;;
39426;SDS011;25938;48.470;1.486;2022-10-31T04:52:49;2.03;;;1.60;;
39426;SDS011;25938;48.470;1.486;2022-10-31T04:55:14;1.88;;;1.50;;
39426;SDS011;25938;48.470;1.486;2022-10-31T04:57:44;2.70;;;1.58;;
39426;SDS011;25938;48.470;1.486;2022-10-31T05:00:11;2.28;;;2.03;;
39426;SDS011;25938;48.470;1.486;2022-10-31T05:02:45;3.40;;;1.48;;
39426;SDS011;25938;48.470;1.486;2022-10-31T05:05:11;1.90;;;1.50;;
39426;SDS011;25938;48.470;1.486;2022-10-31T05:07:38;1.30;;;1.10;;
39426;SDS011;25938;48.470;1.486;2022-10-31T05:10:08;3.25;;;2.03;;
39426;SDS011;25938;48.470;1.486;2022-10-31T05:12:49;1.77;;;1.33;;
39426;SDS011;25938;48.470;1.486;2022-10-31T05:15:26;3.13;;;1.58;;
39426;SDS011;25938;48.470;1.486;2022-10-31T05:17:52;2.47;;;1.48;;
39426;SDS011;25938;48.470;1.486;2022-10-31T05:20:19;1.10;;;1.08;;
39426;SDS011;25938;48.470;1.486;2022-10-31T05:22:46;3.33;;;1.50;;
39426;SDS011;25938;48.470;1.486;2022-10-31T05:25:16;1.27;;;1.17;;
39426;SDS011;25938;48.470;1.486;2022-10-31T05:27:44;3.05;;;1.25;;
39426;SDS011;25938;48.470;1.486;2022-10-31T05:30:12;2.22;;;1.48;;
39426;SDS011;25938;48.470;1.486;2022-10-31T05:32:40;3.97;;;3.67;;
39426;SDS011;25938;48.470;1.486;2022-10-31T05:35:10;4.28;;;2.85;;
39426;SDS011;25938;48.470;1.486;2022-10-31T05:37:38;1.77;;;1.45;;
39426;SDS011;25938;48.470;1.486;2022-10-31T05:40:04;2.38;;;1.60;;
39426;SDS011;25938;48.470;1.486;2022-10-31T05:42:31;2.22;;;1.73;;
39426;SDS011;25938;48.470;1.486;2022-10-31T05:44:56;2.60;;;1.55;;
39426;SDS011;25938;48.470;1.486;2022-10-31T05:47:22;1.92;;;1.38;;
39426;SDS011;25938;48.470;1.486;2022-10-31T05:49:48;3.13;;;1.42;;
39426;SDS011;25938;48.470;1.486;2022-10-31T05:52:14;4.05;;;1.25;;
39426;SDS011;25938;48.470;1.486;2022-10-31T05:54:40;2.25;;;2.05;;
39426;SDS011;25938;48.470;1.486;2022-10-31T05:57:05;2.65;;;1.65;;
39426;SDS011;25938;48.470;1.486;2022-10-31T05:59:31;2.25;;;2.05;;
39426;SDS011;25938;48.470;1.486;2022-10-31T06:01:57;2.42;;;2.05;;
39426;SDS011;25938;48.470;1.486;2022-10-31T06:04:23;3.75;;;1.98;;
39426;SDS011;25938;48.470;1.486;2022-10-31T06:06:48;4.22;;;1.60;;
39426;SDS011;25938;48.470;1.486;2022-10-31T06:09:14;1.77;;;1.67;;
39426;SDS011;25938;48.470;1.486;2022-10-31T06:11:39;1.40;;;1.10;;
39426;SDS011;25938;48.470;1.486;2022-10-31T06:14:05;1.33;;;1.00;;
39426;SDS011;25938;48.470;1.486;2022-10-31T06:16:31;3.25;;;1.73;;
39426;SDS011;25938;48.470;1.486;2022-10-31T06:18:57;2.55;;;1.40;;
39426;SDS011;25938;48.470;1.486;2022-10-31T06:21:23;2.10;;;1.10;;
39426;SDS011;25938;48.470;1.486;2022-10-31T06:23:49;2.03;;;1.38;;
39426;SDS011;25938;48.470;1.486;2022-10-31T06:26:14;1.92;;;1.48;;
39426;SDS011;25938;48.470;1.486;2022-10-31T06:28:40;1.40;;;1.30;;
39426;SDS011;25938;48.470;1.486;2022-10-31T06:31:06;2.70;;;1.15;;
39426;SDS011;25938;48.470;1.486;2022-10-31T06:33:32;2.75;;;2.53;;
39426;SDS011;25938;48.470;1.486;2022-10-31T06:35:59;1.65;;;1.20;;
39426;SDS011;25938;48.470;1.486;2022-10-31T06:38:27;2.67;;;1.33;;
39426;SDS011;25938;48.470;1.486;2022-10-31T06:40:53;2.60;;;1.30;;
39426;SDS011;25938;48.470;1.486;2022-10-31T06:43:20;1.80;;;1.38;;
39426;SDS011;25938;48.470;1.486;2022-10-31T06:45:46;4.32;;;1.30;;
39426;SDS011;25938;48.470;1.486;2022-10-31T06:48:12;2.30;;;1.55;;
39426;SDS011;25938;48.470;1.486;2022-10-31T06:50:37;1.92;;;1.50;;
39426;SDS011;25938;48.470;1.486;2022-10-31T06:53:03;3.53;;;2.25;;
39426;SDS011;25938;48.470;1.486;2022-10-31T06:55:29;1.45;;;1.27;;
39426;SDS011;25938;48.470;1.486;2022-10-31T06:57:55;1.92;;;1.40;;
39426;SDS011;25938;48.470;1.486;2022-10-31T07:00:23;2.42;;;1.20;;
39426;SDS011;25938;48.470;1.486;2022-10-31T07:05:23;3.67;;;1.63;;
39426;SDS011;25938;48.470;1.486;2022-10-31T07:07:53;2.10;;;1.90;;
39426;SDS011;25938;48.470;1.486;2022-10-31T07:10:27;2.40;;;1.20;;
39426;SDS011;25938;48.470;1.486;2022-10-31T07:12:58;3.03;;;1.90;;
39426;SDS011;25938;48.470;1.486;2022-10-31T07:15:26;2.83;;;1.75;;
39426;SDS011;25938;48.470;1.486;2022-10-31T07:17:53;4.30;;;1.42;;
39426;SDS011;25938;48.470;1.486;2022-10-31T07:20:18;2.15;;;1.52;;
39426;SDS011;25938;48.470;1.486;2022-10-31T07:22:44;2.08;;;1.48;;
39426;SDS011;25938;48.470;1.486;2022-10-31T07:25:10;5.35;;;1.20;;
39426;SDS011;25938;48.470;1.486;2022-10-31T07:27:36;4.28;;;1.92;;
39426;SDS011;25938;48.470;1.486;2022-10-31T07:30:06;1.77;;;1.45;;
39426;SDS011;25938;48.470;1.486;2022-10-31T07:32:43;7.47;;;1.70;;
39426;SDS011;25938;48.470;1.486;2022-10-31T07:35:11;1.88;;;1.33;;
39426;SDS011;25938;48.470;1.486;2022-10-31T07:37:42;2.20;;;1.23;;
39426;SDS011;25938;48.470;1.486;2022-10-31T07:40:08;2.25;;;1.80;;
39426;SDS011;25938;48.470;1.486;2022-10-31T07:42:37;3.90;;;1.90;;
39426;SDS011;25938;48.470;1.486;2022-10-31T07:45:08;2.47;;;1.55;;
39426;SDS011;25938;48.470;1.486;2022-10-31T07:47:44;3.15;;;1.95;;
39426;SDS011;25938;48.470;1.486;2022-10-31T07:50:18;2.08;;;1.50;;
39426;SDS011;25938;48.470;1.486;2022-10-31T07:52:45;2.22;;;1.50;;
39426;SDS011;25938;48.470;1.486;2022-10-31T07:55:11;3.30;;;1.33;;
39426;SDS011;25938;48.470;1.486;2022-10-31T07:57:37;1.73;;;1.63;;
39426;SDS011;25938;48.470;1.486;2022-10-31T08:00:04;2.03;;;1.83;;
39426;SDS011;25938;48.470;1.486;2022-10-31T08:02:34;2.50;;;1.52;;
39426;SDS011;25938;48.470;1.486;2022-10-31T08:05:00;2.78;;;1.38;;
39426;SDS011;25938;48.470;1.486;2022-10-31T08:07:27;5.05;;;2.45;;
39426;SDS011;25938;48.470;1.486;2022-10-31T08:09:53;2.72;;;2.13;;
39426;SDS011;25938;48.470;1.486;2022-10-31T08:12:19;2.33;;;2.10;;
39426;SDS011;25938;48.470;1.486;2022-10-31T08:14:45;2.83;;;1.73;;
39426;SDS011;25938;48.470;1.486;2022-10-31T08:17:11;2.90;;;2.53;;
39426;SDS011;25938;48.470;1.486;2022-10-31T08:19:36;3.55;;;2.15;;
39426;SDS011;25938;48.470;1.486;2022-10-31T08:22:02;2.47;;;2.08;;
39426;SDS011;25938;48.470;1.486;2022-10-31T08:24:28;1.98;;;1.75;;
39426;SDS011;25938;48.470;1.486;2022-10-31T08:26:53;3.05;;;1.85;;
39426;SDS011;25938;48.470;1.486;2022-10-31T08:29:19;1.92;;;1.48;;
39426;SDS011;25938;48.470;1.486;2022-10-31T08:31:44;3.03;;;2.10;;
39426;SDS011;25938;48.470;1.486;2022-10-31T08:34:10;3.47;;;1.92;;
39426;SDS011;25938;48.470;1.486;2022-10-31T08:36:36;3.72;;;2.30;;
39426;SDS011;25938;48.470;1.486;2022-10-31T08:39:01;3.15;;;2.95;;
39426;SDS011;25938;48.470;1.486;2022-10-31T08:41:28;4.47;;;1.73;;
39426;SDS011;25938;48.470;1.486;2022-10-31T08:43:54;2.45;;;1.85;;
39426;SDS011;25938;48.470;1.486;2022-10-31T08:46:19;3.15;;;2.03;;
39426;SDS011;25938;48.470;1.486;2022-10-31T08:48:47;5.30;;;2.05;;
39426;SDS011;25938;48.470;1.486;2022-10-31T08:51:13;2.80;;;2.38;;
39426;SDS011;25938;48.470;1.486;2022-10-31T08:53:39;5.15;;;2.55;;
39426;SDS011;25938;48.470;1.486;2022-10-31T08:56:05;2.65;;;2.17;;
39426;SDS011;25938;48.470;1.486;2022-10-31T08:58:31;4.35;;;2.83;;
39426;SDS011;25938;48.470;1.486;2022-10-31T09:00:58;6.20;;;2.45;;
39426;SDS011;25938;48.470;1.486;2022-10-31T09:03:25;2.28;;;1.85;;
39426;SDS011;25938;48.470;1.486;2022-10-31T09:05:56;9.80;;;3.85;;
39426;SDS011;25938;48.470;1.486;2022-10-31T09:08:24;9.30;;;3.13;;
39426;SDS011;25938;48.470;1.486;2022-10-31T09:10:50;7.43;;;3.50;;
39426;SDS011;25938;48.470;1.486;2022-10-31T09:13:17;5.68;;;2.88;;
39426;SDS011;25938;48.470;1.486;2022-10-31T09:15:45;3.10;;;2.08;;
39426;SDS011;25938;48.470;1.486;2022-10-31T09:18:12;5.88;;;3.35;;
39426;SDS011;25938;48.470;1.486;2022-10-31T09:20:41;6.72;;;4.15;;
39426;SDS011;25938;48.470;1.486;2022-10-31T09:23:17;7.07;;;4.57;;
39426;SDS011;25938;48.470;1.486;2022-10-31T09:25:44;5.25;;;3.72;;
39426;SDS011;25938;48.470;1.486;2022-10-31T09:28:11;5.75;;;2.97;;
39426;SDS011;25938;48.470;1.486;2022-10-31T09:30:38;6.15;;;3.55;;
39426;SDS011;25938;48.470;1.486;2022-10-31T09:33:05;7.60;;;3.58;;
39426;SDS011;25938;48.470;1.486;2022-10-31T09:35:34;4.20;;;2.55;;
39426;SDS011;25938;48.470;1.486;2022-10-31T09:38:10;4.13;;;2.78;;
39426;SDS011;25938;48.470;1.486;2022-10-31T09:40:41;2.50;;;1.92;;
39426;SDS011;25938;48.470;1.486;2022-10-31T09:45:56;7.00;;;3.88;;
39426;SDS011;25938;48.470;1.486;2022-10-31T09:51:13;5.38;;;4.32;;
39426;SDS011;25938;48.470;1.486;2022-10-31T09:53:45;7.72;;;3.17;;
39426;SDS011;25938;48.470;1.486;2022-10-31T09:56:35;5.90;;;2.80;;
39426;SDS011;25938;48.470;1.486;2022-10-31T09:59:03;3.72;;;2.30;;
39426;SDS011;25938;48.470;1.486;2022-10-31T10:06:44;9.07;;;4.30;;
39426;SDS011;25938;48.470;1.486;2022-10-31T10:09:14;3.13;;;2.70;;
39426;SDS011;25938;48.470;1.486;2022-10-31T10:11:50;7.80;;;3.88;;
39426;SDS011;25938;48.470;1.486;2022-10-31T10:14:28;5.63;;;3.70;;
39426;SDS011;25938;48.470;1.486;2022-10-31T10:20:07;10.80;;;5.07;;
39426;SDS011;25938;48.470;1.486;2022-10-31T10:22:43;4.60;;;2.20;;
39426;SDS011;25938;48.470;1.486;2022-10-31T10:25:23;6.63;;;3.30;;
39426;SDS011;25938;48.470;1.486;2022-10-31T10:33:26;7.68;;;3.78;;
39426;SDS011;25938;48.470;1.486;2022-10-31T10:36:00;9.02;;;4.07;;
39426;SDS011;25938;48.470;1.486;2022-10-31T10:41:14;8.55;;;4.72;;
39426;SDS011;25938;48.470;1.486;2022-10-31T10:43:42;9.77;;;5.10;;
39426;SDS011;25938;48.470;1.486;2022-10-31T10:55:06;5.90;;;3.50;;
39426;SDS011;25938;48.470;1.486;2022-10-31T11:00:15;5.43;;;2.50;;
39426;SDS011;25938;48.470;1.486;2022-10-31T11:02:47;7.22;;;4.15;;
39426;SDS011;25938;48.470;1.486;2022-10-31T11:05:15;6.63;;;4.05;;
39426;SDS011;25938;48.470;1.486;2022-10-31T11:08:04;2.85;;;2.50;;
39426;SDS011;25938;48.470;1.486;2022-10-31T11:10:31;6.78;;;3.90;;
39426;SDS011;25938;48.470;1.486;2022-10-31T11:13:00;6.97;;;4.68;;
39426;SDS011;25938;48.470;1.486;2022-10-31T11:15:36;7.47;;;4.10;;
39426;SDS011;25938;48.470;1.486;2022-10-31T11:18:24;7.73;;;4.97;;
39426;SDS011;25938;48.470;1.486;2022-10-31T11:20:52;8.60;;;4.18;;
39426;SDS011;25938;48.470;1.486;2022-10-31T11:23:24;3.83;;;2.10;;
39426;SDS011;25938;48.470;1.486;2022-10-31T11:25:58;6.07;;;4.03;;
39426;SDS011;25938;48.470;1.486;2022-10-31T11:28:26;4.93;;;4.32;;
39426;SDS011;25938;48.470;1.486;2022-10-31T11:30:55;10.07;;;4.55;;
39426;SDS011;25938;48.470;1.486;2022-10-31T11:33:24;7.50;;;4.03;;
39426;SDS011;25938;48.470;1.486;2022-10-31T11:35:51;6.38;;;4.80;;
39426;SDS011;25938;48.470;1.486;2022-10-31T11:38:19;7.25;;;4.32;;
39426;SDS011;25938;48.470;1.486;2022-10-31T11:41:00;8.13;;;4.32;;
39426;SDS011;25938;48.470;1.486;2022-10-31T11:43:34;4.72;;;2.58;;
39426;SDS011;25938;48.470;1.486;2022-10-31T11:46:07;9.15;;;4.57;;
39426;SDS011;25938;48.470;1.486;2022-10-31T11:48:40;10.55;;;4.45;;
39426;SDS011;25938;48.470;1.486;2022-10-31T11:51:20;4.20;;;2.58;;
39426;SDS011;25938;48.470;1.486;2022-10-31T11:53:50;3.65;;;2.58;;
39426;SDS011;25938;48.470;1.486;2022-10-31T11:56:17;5.10;;;3.72;;
39426;SDS011;25938;48.470;1.486;2022-10-31T11:58:43;9.10;;;5.07;;
39426;SDS011;25938;48.470;1.486;2022-10-31T12:01:24;10.27;;;4.20;;
39426;SDS011;25938;48.470;1.486;2022-10-31T12:03:54;4.53;;;2.43;;
39426;SDS011;25938;48.470;1.486;2022-10-31T12:06:36;5.97;;;2.70;;
39426;SDS011;25938;48.470;1.486;2022-10-31T12:09:14;7.13;;;3.83;;
39426;SDS011;25938;48.470;1.486;2022-10-31T12:14:37;7.82;;;4.55;;
39426;SDS011;25938;48.470;1.486;2022-10-31T12:17:22;12.40;;;5.38;;
39426;SDS011;25938;48.470;1.486;2022-10-31T12:25:46;6.20;;;4.32;;
39426;SDS011;25938;48.470;1.486;2022-10-31T12:31:13;8.90;;;4.90;;
39426;SDS011;25938;48.470;1.486;2022-10-31T12:33:45;6.80;;;4.35;;
39426;SDS011;25938;48.470;1.486;2022-10-31T12:58:38;9.80;;;4.70;;
39426;SDS011;25938;48.470;1.486;2022-10-31T13:06:48;7.15;;;3.40;;
39426;SDS011;25938;48.470;1.486;2022-10-31T13:09:27;9.00;;;4.50;;
39426;SDS011;25938;48.470;1.486;2022-10-31T13:12:01;8.77;;;4.85;;
39426;SDS011;25938;48.470;1.486;2022-10-31T13:14:33;10.55;;;4.68;;
39426;SDS011;25938;48.470;1.486;2022-10-31T13:17:03;9.82;;;4.32;;
39426;SDS011;25938;48.470;1.486;2022-10-31T13:19:41;9.43;;;4.30;;
39426;SDS011;25938;48.470;1.486;2022-10-31T13:22:10;7.45;;;4.40;;
39426;SDS011;25938;48.470;1.486;2022-10-31T13:24:42;6.45;;;3.90;;
39426;SDS011;25938;48.470;1.486;2022-10-31T13:27:20;5.45;;;3.78;;
39426;SDS011;25938;48.470;1.486;2022-10-31T13:30:56;8.55;;;4.65;;
39426;SDS011;25938;48.470;1.486;2022-10-31T13:46:56;9.57;;;4.75;;
39426;SDS011;25938;48.470;1.486;2022-10-31T13:54:42;6.78;;;4.05;;
39426;SDS011;25938;48.470;1.486;2022-10-31T13:57:24;6.22;;;3.50;;
39426;SDS011;25938;48.470;1.486;2022-10-31T14:02:49;10.05;;;5.47;;
39426;SDS011;25938;48.470;1.486;2022-10-31T14:05:21;5.43;;;4.05;;
39426;SDS011;25938;48.470;1.486;2022-10-31T14:07:53;8.43;;;4.60;;
39426;SDS011;25938;48.470;1.486;2022-10-31T14:10:36;5.72;;;4.65;;
39426;SDS011;25938;48.470;1.486;2022-10-31T14:15:32;5.53;;;4.03;;
39426;SDS011;25938;48.470;1.486;2022-10-31T14:17:59;4.90;;;3.83;;
39426;SDS011;25938;48.470;1.486;2022-10-31T14:20:40;7.72;;;4.85;;
39426;SDS011;25938;48.470;1.486;2022-10-31T14:25:50;5.10;;;4.18;;
39426;SDS011;25938;48.470;1.486;2022-10-31T14:28:49;12.20;;;4.28;;
39426;SDS011;25938;48.470;1.486;2022-10-31T14:47:46;7.10;;;3.97;;
39426;SDS011;25938;48.470;1.486;2022-10-31T14:53:36;7.50;;;3.45;;
39426;SDS011;25938;48.470;1.486;2022-10-31T14:56:09;7.43;;;4.43;;
39426;SDS011;25938;48.470;1.486;2022-10-31T14:58:46;9.25;;;4.57;;
39426;SDS011;25938;48.470;1.486;2022-10-31T15:03:57;7.95;;;3.95;;
39426;SDS011;25938;48.470;1.486;2022-10-31T15:06:38;8.93;;;4.38;;
39426;SDS011;25938;48.470;1.486;2022-10-31T15:09:20;7.10;;;3.90;;
39426;SDS011;25938;48.470;1.486;2022-10-31T15:11:49;6.68;;;3.90;;
39426;SDS011;25938;48.470;1.486;2022-10-31T15:14:26;6.82;;;3.15;;
39426;SDS011;25938;48.470;1.486;2022-10-31T15:16:55;4.00;;;3.55;;
39426;SDS011;25938;48.470;1.486;2022-10-31T15:19:26;7.65;;;3.97;;
39426;SDS011;25938;48.470;1.486;2022-10-31T15:21:54;7.95;;;4.05;;
39426;SDS011;25938;48.470;1.486;2022-10-31T15:24:22;5.70;;;3.45;;
39426;SDS011;25938;48.470;1.486;2022-10-31T15:26:52;9.18;;;4.40;;
39426;SDS011;25938;48.470;1.486;2022-10-31T15:29:20;7.05;;;3.67;;
39426;SDS011;25938;48.470;1.486;2022-10-31T15:32:00;6.47;;;3.70;;
39426;SDS011;25938;48.470;1.486;2022-10-31T15:34:43;6.37;;;3.73;;
39426;SDS011;25938;48.470;1.486;2022-10-31T15:37:16;5.50;;;3.88;;
39426;SDS011;25938;48.470;1.486;2022-10-31T15:39:44;7.25;;;4.20;;
39426;SDS011;25938;48.470;1.486;2022-10-31T15:42:18;8.82;;;6.50;;
39426;SDS011;25938;48.470;1.486;2022-10-31T15:44:45;6.60;;;4.43;;
39426;SDS011;25938;48.470;1.486;2022-10-31T15:47:16;8.40;;;4.85;;
39426;SDS011;25938;48.470;1.486;2022-10-31T15:49:53;8.75;;;4.13;;
39426;SDS011;25938;48.470;1.486;2022-10-31T15:52:31;5.55;;;3.55;;
39426;SDS011;25938;48.470;1.486;2022-10-31T15:57:45;5.32;;;3.92;;
39426;SDS011;25938;48.470;1.486;2022-10-31T16:00:30;6.93;;;3.13;;
39426;SDS011;25938;48.470;1.486;2022-10-31T16:14:33;8.73;;;5.32;;
39426;SDS011;25938;48.470;1.486;2022-10-31T16:16:27;5.35;;;3.65;;
39426;SDS011;25938;48.470;1.486;2022-10-31T16:18:55;9.25;;;4.57;;
39426;SDS011;25938;48.470;1.486;2022-10-31T16:21:24;8.52;;;5.20;;
39426;SDS011;25938;48.470;1.486;2022-10-31T16:26:37;11.07;;;5.03;;
39426;SDS011;25938;48.470;1.486;2022-10-31T16:29:03;9.73;;;4.40;;
39426;SDS011;25938;48.470;1.486;2022-10-31T16:31:36;9.80;;;4.82;;
39426;SDS011;25938;48.470;1.486;2022-10-31T16:34:04;7.93;;;4.55;;
39426;SDS011;25938;48.470;1.486;2022-10-31T16:36:37;6.82;;;4.18;;
39426;SDS011;25938;48.470;1.486;2022-10-31T16:39:04;8.45;;;4.57;;
39426;SDS011;25938;48.470;1.486;2022-10-31T16:41:31;8.93;;;4.22;;
39426;SDS011;25938;48.470;1.486;2022-10-31T16:44:02;5.80;;;3.65;;
39426;SDS011;25938;48.470;1.486;2022-10-31T16:46:31;6.82;;;3.72;;
39426;SDS011;25938;48.470;1.486;2022-10-31T16:48:57;8.75;;;4.20;;
39426;SDS011;25938;48.470;1.486;2022-10-31T16:51:22;7.65;;;4.13;;
39426;SDS011;25938;48.470;1.486;2022-10-31T16:53:50;7.78;;;3.88;;
39426;SDS011;25938;48.470;1.486;2022-10-31T16:56:18;8.10;;;4.45;;
39426;SDS011;25938;48.470;1.486;2022-10-31T16:58:56;4.28;;;3.38;;
39426;SDS011;25938;48.470;1.486;2022-10-31T17:01:23;6.40;;;3.45;;
39426;SDS011;25938;48.470;1.486;2022-10-31T17:03:49;9.05;;;3.55;;
39426;SDS011;25938;48.470;1.486;2022-10-31T17:06:15;5.60;;;3.90;;
39426;SDS011;25938;48.470;1.486;2022-10-31T17:08:40;6.07;;;3.65;;
39426;SDS011;25938;48.470;1.486;2022-10-31T17:11:08;5.75;;;4.22;;
39426;SDS011;25938;48.470;1.486;2022-10-31T17:13:40;6.68;;;4.15;;
39426;SDS011;25938;48.470;1.486;2022-10-31T17:16:06;6.47;;;3.70;;
39426;SDS011;25938;48.470;1.486;2022-10-31T17:18:31;7.35;;;4.03;;
39426;SDS011;25938;48.470;1.486;2022-10-31T17:20:57;7.63;;;4.45;;
39426;SDS011;25938;48.470;1.486;2022-10-31T17:23:25;7.53;;;4.03;;
39426;SDS011;25938;48.470;1.486;2022-10-31T17:25:51;7.05;;;4.43;;
39426;SDS011;25938;48.470;1.486;2022-10-31T17:28:17;6.97;;;3.97;;
39426;SDS011;25938;48.470;1.486;2022-10-31T17:30:43;9.07;;;4.55;;
39426;SDS011;25938;48.470;1.486;2022-10-31T17:33:12;7.85;;;4.55;;
39426;SDS011;25938;48.470;1.486;2022-10-31T17:35:39;7.25;;;3.70;;
39426;SDS011;25938;48.470;1.486;2022-10-31T17:38:05;7.43;;;4.13;;
39426;SDS011;25938;48.470;1.486;2022-10-31T17:40:31;6.72;;;3.75;;
39426;SDS011;25938;48.470;1.486;2022-10-31T17:42:57;6.45;;;4.40;;
39426;SDS011;25938;48.470;1.486;2022-10-31T17:45:23;9.10;;;4.43;;
39426;SDS011;25938;48.470;1.486;2022-10-31T17:47:50;9.55;;;4.45;;
39426;SDS011;25938;48.470;1.486;2022-10-31T17:50:18;7.70;;;5.22;;
39426;SDS011;25938;48.470;1.486;2022-10-31T17:52:47;8.13;;;4.28;;
39426;SDS011;25938;48.470;1.486;2022-10-31T17:55:13;7.07;;;5.00;;